sensor_id;sensor_type;location;lat;lon;timestamp;P1;durP1;ratioP1;P2;durP2;ratioP2
11642;SDS011;5877;50.930;6.918;2022-08-25T00:00:11;3.90;;;2.40;;
11642;SDS011;5877;50.930;6.918;2022-08-25T00:02:41;4.77;;;2.43;;
11642;SDS011;5877;50.930;6.918;2022-08-25T00:05:22;3.53;;;2.20;;
11642;SDS011;5877;50.930;6.918;2022-08-25T00:07:55;4.80;;;2.60;;
11642;SDS011;5877;50.930;6.918;2022-08-25T00:10:22;3.07;;;2.50;;
11642;SDS011;5877;50.930;6.918;2022-08-25T00:12:49;4.63;;;2.47;;
11642;SDS011;5877;50.930;6.918;2022-08-25T00:15:16;5.63;;;2.70;;
11642;SDS011;5877;50.930;6.918;2022-08-25T00:17:43;2.60;;;2.40;;
11642;SDS011;5877;50.930;6.918;2022-08-25T00:20:11;3.70;;;2.40;;
11642;SDS011;5877;50.930;6.918;2022-08-25T00:22:39;3.93;;;2.70;;
11642;SDS011;5877;50.930;6.918;2022-08-25T00:25:06;2.60;;;2.40;;
11642;SDS011;5877;50.930;6.918;2022-08-25T00:27:35;6.13;;;2.90;;
11642;SDS011;5877;50.930;6.918;2022-08-25T00:30:03;5.97;;;2.80;;
11642;SDS011;5877;50.930;6.918;2022-08-25T00:32:31;4.70;;;2.80;;
11642;SDS011;5877;50.930;6.918;2022-08-25T00:35:01;5.73;;;2.67;;
11642;SDS011;5877;50.930;6.918;2022-08-25T00:37:31;5.23;;;2.47;;
11642;SDS011;5877;50.930;6.918;2022-08-25T00:39:59;3.30;;;2.50;;
11642;SDS011;5877;50.930;6.918;2022-08-25T00:42:26;5.80;;;2.63;;
11642;SDS011;5877;50.930;6.918;2022-08-25T00:44:54;4.23;;;2.50;;
11642;SDS011;5877;50.930;6.918;2022-08-25T00:47:26;4.03;;;2.37;;
11642;SDS011;5877;50.930;6.918;2022-08-25T00:49:57;5.70;;;2.60;;
11642;SDS011;5877;50.930;6.918;2022-08-25T00:52:30;4.67;;;2.57;;
11642;SDS011;5877;50.930;6.918;2022-08-25T00:57:44;2.70;;;2.50;;
11642;SDS011;5877;50.930;6.918;2022-08-25T01:00:18;4.90;;;2.60;;
11642;SDS011;5877;50.930;6.918;2022-08-25T01:02:50;3.70;;;2.60;;
11642;SDS011;5877;50.930;6.918;2022-08-25T01:05:18;4.93;;;2.90;;
11642;SDS011;5877;50.930;6.918;2022-08-25T01:07:46;3.83;;;2.73;;
11642;SDS011;5877;50.930;6.918;2022-08-25T01:10:18;3.37;;;2.60;;
11642;SDS011;5877;50.930;6.918;2022-08-25T01:12:48;6.17;;;2.70;;
11642;SDS011;5877;50.930;6.918;2022-08-25T01:15:16;3.00;;;2.30;;
11642;SDS011;5877;50.930;6.918;2022-08-25T01:17:51;5.03;;;2.40;;
11642;SDS011;5877;50.930;6.918;2022-08-25T01:20:22;3.33;;;2.30;;
11642;SDS011;5877;50.930;6.918;2022-08-25T01:22:55;4.00;;;2.40;;
11642;SDS011;5877;50.930;6.918;2022-08-25T01:28:22;5.50;;;2.50;;
11642;SDS011;5877;50.930;6.918;2022-08-25T01:30:50;5.23;;;2.80;;
11642;SDS011;5877;50.930;6.918;2022-08-25T01:33:18;5.13;;;2.60;;
11642;SDS011;5877;50.930;6.918;2022-08-25T01:35:45;3.43;;;2.57;;
11642;SDS011;5877;50.930;6.918;2022-08-25T01:38:13;8.30;;;2.57;;
11642;SDS011;5877;50.930;6.918;2022-08-25T01:40:40;4.17;;;2.50;;
11642;SDS011;5877;50.930;6.918;2022-08-25T01:45:37;4.40;;;2.43;;
11642;SDS011;5877;50.930;6.918;2022-08-25T01:48:07;5.00;;;2.57;;
11642;SDS011;5877;50.930;6.918;2022-08-25T01:50:38;3.73;;;2.47;;
11642;SDS011;5877;50.930;6.918;2022-08-25T01:53:26;3.37;;;2.40;;
11642;SDS011;5877;50.930;6.918;2022-08-25T01:55:59;3.37;;;2.13;;
11642;SDS011;5877;50.930;6.918;2022-08-25T01:58:37;4.40;;;2.27;;
11642;SDS011;5877;50.930;6.918;2022-08-25T02:01:08;6.73;;;2.40;;
11642;SDS011;5877;50.930;6.918;2022-08-25T02:03:40;4.80;;;2.30;;
11642;SDS011;5877;50.930;6.918;2022-08-25T02:06:10;3.37;;;2.23;;
11642;SDS011;5877;50.930;6.918;2022-08-25T02:08:38;4.13;;;2.20;;
11642;SDS011;5877;50.930;6.918;2022-08-25T02:11:06;4.87;;;2.73;;
11642;SDS011;5877;50.930;6.918;2022-08-25T02:13:38;5.67;;;2.40;;
11642;SDS011;5877;50.930;6.918;2022-08-25T02:16:06;3.43;;;2.43;;
11642;SDS011;5877;50.930;6.918;2022-08-25T02:18:34;3.87;;;1.97;;
11642;SDS011;5877;50.930;6.918;2022-08-25T02:21:01;4.33;;;2.50;;
11642;SDS011;5877;50.930;6.918;2022-08-25T02:23:29;3.83;;;2.40;;
11642;SDS011;5877;50.930;6.918;2022-08-25T02:25:56;3.43;;;2.30;;
11642;SDS011;5877;50.930;6.918;2022-08-25T02:28:23;5.90;;;2.30;;
11642;SDS011;5877;50.930;6.918;2022-08-25T02:30:52;6.13;;;2.33;;
11642;SDS011;5877;50.930;6.918;2022-08-25T02:33:27;5.70;;;2.57;;
11642;SDS011;5877;50.930;6.918;2022-08-25T02:35:56;6.57;;;2.73;;
11642;SDS011;5877;50.930;6.918;2022-08-25T02:38:24;7.13;;;2.70;;
11642;SDS011;5877;50.930;6.918;2022-08-25T02:40:56;5.50;;;2.53;;
11642;SDS011;5877;50.930;6.918;2022-08-25T02:43:25;2.57;;;1.90;;
11642;SDS011;5877;50.930;6.918;2022-08-25T02:45:53;4.13;;;2.27;;
11642;SDS011;5877;50.930;6.918;2022-08-25T02:48:22;3.30;;;2.30;;
11642;SDS011;5877;50.930;6.918;2022-08-25T02:50:53;6.17;;;2.53;;
11642;SDS011;5877;50.930;6.918;2022-08-25T02:53:20;2.97;;;2.67;;
11642;SDS011;5877;50.930;6.918;2022-08-25T02:55:47;2.87;;;2.20;;
11642;SDS011;5877;50.930;6.918;2022-08-25T02:58:15;4.70;;;2.57;;
11642;SDS011;5877;50.930;6.918;2022-08-25T03:00:41;6.57;;;2.40;;
11642;SDS011;5877;50.930;6.918;2022-08-25T03:03:09;4.17;;;2.87;;
11642;SDS011;5877;50.930;6.918;2022-08-25T03:05:42;2.63;;;2.43;;
11642;SDS011;5877;50.930;6.918;2022-08-25T03:08:09;3.47;;;2.30;;
11642;SDS011;5877;50.930;6.918;2022-08-25T03:10:36;3.37;;;2.47;;
11642;SDS011;5877;50.930;6.918;2022-08-25T03:13:03;7.90;;;3.00;;
11642;SDS011;5877;50.930;6.918;2022-08-25T03:15:31;3.10;;;2.40;;
11642;SDS011;5877;50.930;6.918;2022-08-25T03:17:58;4.43;;;2.53;;
11642;SDS011;5877;50.930;6.918;2022-08-25T03:20:28;5.10;;;2.70;;
11642;SDS011;5877;50.930;6.918;2022-08-25T03:22:55;4.80;;;2.50;;
11642;SDS011;5877;50.930;6.918;2022-08-25T03:25:23;3.90;;;2.50;;
11642;SDS011;5877;50.930;6.918;2022-08-25T03:28:08;4.87;;;2.50;;
11642;SDS011;5877;50.930;6.918;2022-08-25T03:30:36;3.70;;;2.60;;
11642;SDS011;5877;50.930;6.918;2022-08-25T03:33:03;3.87;;;2.50;;
11642;SDS011;5877;50.930;6.918;2022-08-25T03:35:30;4.50;;;2.60;;
11642;SDS011;5877;50.930;6.918;2022-08-25T03:37:58;4.13;;;2.37;;
11642;SDS011;5877;50.930;6.918;2022-08-25T03:40:26;3.37;;;2.60;;
11642;SDS011;5877;50.930;6.918;2022-08-25T03:42:56;3.97;;;2.50;;
11642;SDS011;5877;50.930;6.918;2022-08-25T03:45:26;3.93;;;2.70;;
11642;SDS011;5877;50.930;6.918;2022-08-25T03:47:53;3.00;;;2.67;;
11642;SDS011;5877;50.930;6.918;2022-08-25T03:50:21;2.70;;;2.50;;
11642;SDS011;5877;50.930;6.918;2022-08-25T03:52:49;3.80;;;3.10;;
11642;SDS011;5877;50.930;6.918;2022-08-25T03:55:20;4.50;;;2.53;;
11642;SDS011;5877;50.930;6.918;2022-08-25T03:57:49;4.97;;;2.90;;
11642;SDS011;5877;50.930;6.918;2022-08-25T04:00:17;2.90;;;2.40;;
11642;SDS011;5877;50.930;6.918;2022-08-25T04:02:44;3.07;;;2.60;;
11642;SDS011;5877;50.930;6.918;2022-08-25T04:05:11;5.10;;;2.83;;
11642;SDS011;5877;50.930;6.918;2022-08-25T04:07:41;5.10;;;2.37;;
11642;SDS011;5877;50.930;6.918;2022-08-25T04:10:08;4.13;;;2.60;;
11642;SDS011;5877;50.930;6.918;2022-08-25T04:12:40;5.87;;;3.03;;
11642;SDS011;5877;50.930;6.918;2022-08-25T04:15:07;6.67;;;3.00;;
11642;SDS011;5877;50.930;6.918;2022-08-25T04:17:38;4.17;;;2.70;;
11642;SDS011;5877;50.930;6.918;2022-08-25T04:20:07;4.60;;;3.10;;
11642;SDS011;5877;50.930;6.918;2022-08-25T04:22:35;3.33;;;2.80;;
11642;SDS011;5877;50.930;6.918;2022-08-25T04:25:04;3.60;;;3.00;;
11642;SDS011;5877;50.930;6.918;2022-08-25T04:27:32;9.57;;;2.90;;
11642;SDS011;5877;50.930;6.918;2022-08-25T04:29:59;7.20;;;3.10;;
11642;SDS011;5877;50.930;6.918;2022-08-25T04:32:26;3.90;;;3.17;;
11642;SDS011;5877;50.930;6.918;2022-08-25T04:34:53;4.13;;;3.33;;
11642;SDS011;5877;50.930;6.918;2022-08-25T04:37:20;4.90;;;3.20;;
11642;SDS011;5877;50.930;6.918;2022-08-25T04:39:47;4.90;;;3.17;;
11642;SDS011;5877;50.930;6.918;2022-08-25T04:42:13;5.67;;;2.90;;
11642;SDS011;5877;50.930;6.918;2022-08-25T04:44:41;6.50;;;3.30;;
11642;SDS011;5877;50.930;6.918;2022-08-25T04:47:08;3.27;;;2.97;;
11642;SDS011;5877;50.930;6.918;2022-08-25T04:49:36;5.37;;;2.90;;
11642;SDS011;5877;50.930;6.918;2022-08-25T04:52:06;3.43;;;3.13;;
11642;SDS011;5877;50.930;6.918;2022-08-25T04:54:40;5.40;;;3.17;;
11642;SDS011;5877;50.930;6.918;2022-08-25T04:57:07;6.40;;;3.47;;
11642;SDS011;5877;50.930;6.918;2022-08-25T04:59:34;5.40;;;3.03;;
11642;SDS011;5877;50.930;6.918;2022-08-25T05:02:01;5.33;;;2.87;;
11642;SDS011;5877;50.930;6.918;2022-08-25T05:04:34;5.73;;;3.50;;
11642;SDS011;5877;50.930;6.918;2022-08-25T05:07:03;6.00;;;3.30;;
11642;SDS011;5877;50.930;6.918;2022-08-25T05:09:30;4.60;;;3.30;;
11642;SDS011;5877;50.930;6.918;2022-08-25T05:12:00;4.63;;;3.37;;
11642;SDS011;5877;50.930;6.918;2022-08-25T05:14:28;5.73;;;3.33;;
11642;SDS011;5877;50.930;6.918;2022-08-25T05:16:56;5.73;;;3.40;;
11642;SDS011;5877;50.930;6.918;2022-08-25T05:19:24;4.23;;;3.30;;
11642;SDS011;5877;50.930;6.918;2022-08-25T05:21:52;5.27;;;3.20;;
11642;SDS011;5877;50.930;6.918;2022-08-25T05:24:19;3.87;;;3.40;;
11642;SDS011;5877;50.930;6.918;2022-08-25T05:26:47;6.67;;;3.20;;
11642;SDS011;5877;50.930;6.918;2022-08-25T05:29:15;5.37;;;3.10;;
11642;SDS011;5877;50.930;6.918;2022-08-25T05:31:43;6.13;;;3.60;;
11642;SDS011;5877;50.930;6.918;2022-08-25T05:34:16;6.40;;;3.60;;
11642;SDS011;5877;50.930;6.918;2022-08-25T05:36:44;7.63;;;3.50;;
11642;SDS011;5877;50.930;6.918;2022-08-25T05:39:11;6.37;;;3.50;;
11642;SDS011;5877;50.930;6.918;2022-08-25T05:41:39;8.53;;;3.60;;
11642;SDS011;5877;50.930;6.918;2022-08-25T05:44:06;6.73;;;3.40;;
11642;SDS011;5877;50.930;6.918;2022-08-25T05:46:34;4.97;;;3.23;;
11642;SDS011;5877;50.930;6.918;2022-08-25T05:49:01;5.37;;;3.13;;
11642;SDS011;5877;50.930;6.918;2022-08-25T05:51:28;5.37;;;3.30;;
11642;SDS011;5877;50.930;6.918;2022-08-25T05:53:57;5.93;;;2.90;;
11642;SDS011;5877;50.930;6.918;2022-08-25T05:56:24;5.90;;;3.37;;
11642;SDS011;5877;50.930;6.918;2022-08-25T05:58:51;4.03;;;2.80;;
11642;SDS011;5877;50.930;6.918;2022-08-25T06:01:24;4.20;;;2.83;;
11642;SDS011;5877;50.930;6.918;2022-08-25T06:04:12;8.57;;;3.20;;
11642;SDS011;5877;50.930;6.918;2022-08-25T06:06:40;5.90;;;2.70;;
11642;SDS011;5877;50.930;6.918;2022-08-25T06:09:09;8.00;;;3.73;;
11642;SDS011;5877;50.930;6.918;2022-08-25T06:11:37;5.83;;;3.23;;
11642;SDS011;5877;50.930;6.918;2022-08-25T06:14:06;9.68;;;3.50;;
11642;SDS011;5877;50.930;6.918;2022-08-25T06:16:34;7.63;;;3.42;;
11642;SDS011;5877;50.930;6.918;2022-08-25T06:19:02;6.22;;;3.33;;
11642;SDS011;5877;50.930;6.918;2022-08-25T06:21:29;6.15;;;2.90;;
11642;SDS011;5877;50.930;6.918;2022-08-25T06:23:56;5.10;;;2.92;;
11642;SDS011;5877;50.930;6.918;2022-08-25T06:26:23;3.80;;;2.63;;
11642;SDS011;5877;50.930;6.918;2022-08-25T06:28:51;7.10;;;3.28;;
11642;SDS011;5877;50.930;6.918;2022-08-25T06:31:18;5.05;;;3.00;;
11642;SDS011;5877;50.930;6.918;2022-08-25T06:33:48;4.43;;;3.28;;
11642;SDS011;5877;50.930;6.918;2022-08-25T06:36:15;6.25;;;3.13;;
11642;SDS011;5877;50.930;6.918;2022-08-25T06:38:43;5.72;;;3.05;;
11642;SDS011;5877;50.930;6.918;2022-08-25T06:41:09;5.13;;;3.03;;
11642;SDS011;5877;50.930;6.918;2022-08-25T06:43:38;7.57;;;3.10;;
11642;SDS011;5877;50.930;6.918;2022-08-25T06:46:14;3.25;;;2.80;;
11642;SDS011;5877;50.930;6.918;2022-08-25T06:48:43;6.40;;;3.08;;
11642;SDS011;5877;50.930;6.918;2022-08-25T06:51:11;6.85;;;3.28;;
11642;SDS011;5877;50.930;6.918;2022-08-25T06:53:40;3.22;;;2.90;;
11642;SDS011;5877;50.930;6.918;2022-08-25T06:56:09;3.72;;;3.08;;
11642;SDS011;5877;50.930;6.918;2022-08-25T06:58:37;6.20;;;3.03;;
11642;SDS011;5877;50.930;6.918;2022-08-25T07:01:12;6.50;;;3.22;;
11642;SDS011;5877;50.930;6.918;2022-08-25T07:03:46;5.43;;;3.20;;
11642;SDS011;5877;50.930;6.918;2022-08-25T07:06:14;6.53;;;3.38;;
11642;SDS011;5877;50.930;6.918;2022-08-25T07:08:44;3.40;;;2.97;;
11642;SDS011;5877;50.930;6.918;2022-08-25T07:11:12;6.55;;;3.33;;
11642;SDS011;5877;50.930;6.918;2022-08-25T07:13:43;9.45;;;2.85;;
11642;SDS011;5877;50.930;6.918;2022-08-25T07:16:11;5.68;;;2.72;;
11642;SDS011;5877;50.930;6.918;2022-08-25T07:18:40;8.93;;;3.20;;
11642;SDS011;5877;50.930;6.918;2022-08-25T07:21:10;5.45;;;3.20;;
11642;SDS011;5877;50.930;6.918;2022-08-25T07:23:38;5.15;;;3.20;;
11642;SDS011;5877;50.930;6.918;2022-08-25T07:26:16;6.43;;;3.25;;
11642;SDS011;5877;50.930;6.918;2022-08-25T07:29:09;7.53;;;3.20;;
11642;SDS011;5877;50.930;6.918;2022-08-25T07:31:38;4.40;;;3.13;;
11642;SDS011;5877;50.930;6.918;2022-08-25T07:34:07;6.05;;;3.05;;
11642;SDS011;5877;50.930;6.918;2022-08-25T07:36:54;7.80;;;3.38;;
11642;SDS011;5877;50.930;6.918;2022-08-25T07:39:22;8.40;;;3.33;;
11642;SDS011;5877;50.930;6.918;2022-08-25T07:41:50;5.97;;;3.00;;
11642;SDS011;5877;50.930;6.918;2022-08-25T07:44:18;6.05;;;3.30;;
11642;SDS011;5877;50.930;6.918;2022-08-25T07:46:49;5.63;;;2.97;;
11642;SDS011;5877;50.930;6.918;2022-08-25T07:49:20;6.55;;;2.90;;
11642;SDS011;5877;50.930;6.918;2022-08-25T07:51:49;5.82;;;3.17;;
11642;SDS011;5877;50.930;6.918;2022-08-25T07:54:31;3.65;;;2.58;;
11642;SDS011;5877;50.930;6.918;2022-08-25T07:57:03;4.85;;;3.00;;
11642;SDS011;5877;50.930;6.918;2022-08-25T07:59:32;5.85;;;3.20;;
11642;SDS011;5877;50.930;6.918;2022-08-25T08:02:09;6.57;;;2.97;;
11642;SDS011;5877;50.930;6.918;2022-08-25T08:04:47;6.38;;;3.28;;
11642;SDS011;5877;50.930;6.918;2022-08-25T08:07:22;5.90;;;3.13;;
11642;SDS011;5877;50.930;6.918;2022-08-25T08:10:09;5.07;;;3.20;;
11642;SDS011;5877;50.930;6.918;2022-08-25T08:12:58;4.10;;;3.15;;
11642;SDS011;5877;50.930;6.918;2022-08-25T08:15:26;7.22;;;3.30;;
11642;SDS011;5877;50.930;6.918;2022-08-25T08:17:56;6.43;;;3.40;;
11642;SDS011;5877;50.930;6.918;2022-08-25T08:20:26;4.70;;;3.03;;
11642;SDS011;5877;50.930;6.918;2022-08-25T08:22:54;6.70;;;3.05;;
11642;SDS011;5877;50.930;6.918;2022-08-25T08:25:20;4.78;;;2.95;;
11642;SDS011;5877;50.930;6.918;2022-08-25T08:27:53;5.28;;;2.72;;
11642;SDS011;5877;50.930;6.918;2022-08-25T08:30:21;4.63;;;2.97;;
11642;SDS011;5877;50.930;6.918;2022-08-25T08:32:52;5.22;;;3.10;;
11642;SDS011;5877;50.930;6.918;2022-08-25T08:35:40;4.65;;;3.05;;
11642;SDS011;5877;50.930;6.918;2022-08-25T08:38:09;4.97;;;3.03;;
11642;SDS011;5877;50.930;6.918;2022-08-25T08:44:25;5.97;;;3.30;;
11642;SDS011;5877;50.930;6.918;2022-08-25T08:49:25;5.10;;;2.90;;
11642;SDS011;5877;50.930;6.918;2022-08-25T08:52:01;6.82;;;3.17;;
11642;SDS011;5877;50.930;6.918;2022-08-25T08:54:31;5.28;;;3.33;;
11642;SDS011;5877;50.930;6.918;2022-08-25T08:57:13;5.45;;;2.95;;
11642;SDS011;5877;50.930;6.918;2022-08-25T08:59:47;4.18;;;2.85;;
11642;SDS011;5877;50.930;6.918;2022-08-25T09:02:36;3.10;;;2.85;;
11642;SDS011;5877;50.930;6.918;2022-08-25T09:05:17;5.22;;;3.03;;
11642;SDS011;5877;50.930;6.918;2022-08-25T09:07:47;3.70;;;3.00;;
11642;SDS011;5877;50.930;6.918;2022-08-25T09:10:33;3.58;;;2.95;;
11642;SDS011;5877;50.930;6.918;2022-08-25T09:13:15;4.40;;;2.47;;
11642;SDS011;5877;50.930;6.918;2022-08-25T09:19:26;3.05;;;2.78;;
11642;SDS011;5877;50.930;6.918;2022-08-25T09:29:41;6.15;;;2.70;;
11642;SDS011;5877;50.930;6.918;2022-08-25T09:32:15;6.55;;;3.03;;
11642;SDS011;5877;50.930;6.918;2022-08-25T09:34:56;6.97;;;2.88;;
11642;SDS011;5877;50.930;6.918;2022-08-25T09:37:25;4.65;;;2.70;;
11642;SDS011;5877;50.930;6.918;2022-08-25T09:39:53;5.72;;;2.83;;
11642;SDS011;5877;50.930;6.918;2022-08-25T09:42:25;4.30;;;2.50;;
11642;SDS011;5877;50.930;6.918;2022-08-25T09:45:17;4.18;;;2.65;;
11642;SDS011;5877;50.930;6.918;2022-08-25T09:47:58;6.53;;;2.80;;
11642;SDS011;5877;50.930;6.918;2022-08-25T09:50:28;6.93;;;2.95;;
11642;SDS011;5877;50.930;6.918;2022-08-25T09:53:11;5.00;;;3.10;;
11642;SDS011;5877;50.930;6.918;2022-08-25T09:55:55;6.00;;;2.80;;
11642;SDS011;5877;50.930;6.918;2022-08-25T09:58:27;5.88;;;2.95;;
11642;SDS011;5877;50.930;6.918;2022-08-25T10:01:05;4.38;;;2.50;;
11642;SDS011;5877;50.930;6.918;2022-08-25T10:06:35;2.67;;;2.47;;
11642;SDS011;5877;50.930;6.918;2022-08-25T10:09:21;3.47;;;2.58;;
11642;SDS011;5877;50.930;6.918;2022-08-25T10:12:01;4.63;;;2.70;;
11642;SDS011;5877;50.930;6.918;2022-08-25T10:14:40;2.65;;;2.45;;
11642;SDS011;5877;50.930;6.918;2022-08-25T10:17:12;3.58;;;2.78;;
11642;SDS011;5877;50.930;6.918;2022-08-25T10:20:39;4.18;;;2.83;;
11642;SDS011;5877;50.930;6.918;2022-08-25T10:22:47;5.10;;;3.05;;
11642;SDS011;5877;50.930;6.918;2022-08-25T10:25:28;4.35;;;3.10;;
11642;SDS011;5877;50.930;6.918;2022-08-25T10:33:43;3.72;;;2.85;;
11642;SDS011;5877;50.930;6.918;2022-08-25T10:36:38;3.95;;;2.92;;
11642;SDS011;5877;50.930;6.918;2022-08-25T10:39:37;3.20;;;2.75;;
11642;SDS011;5877;50.930;6.918;2022-08-25T10:47:54;3.67;;;3.35;;
11642;SDS011;5877;50.930;6.918;2022-08-25T10:56:40;7.33;;;3.03;;
11642;SDS011;5877;50.930;6.918;2022-08-25T10:59:17;5.50;;;3.22;;
11642;SDS011;5877;50.930;6.918;2022-08-25T11:07:30;3.30;;;2.92;;
11642;SDS011;5877;50.930;6.918;2022-08-25T11:10:03;4.13;;;3.47;;
11642;SDS011;5877;50.930;6.918;2022-08-25T11:12:43;5.97;;;3.10;;
11642;SDS011;5877;50.930;6.918;2022-08-25T11:15:21;5.70;;;3.05;;
11642;SDS011;5877;50.930;6.918;2022-08-25T11:20:31;8.73;;;3.50;;
11642;SDS011;5877;50.930;6.918;2022-08-25T11:26:31;2.72;;;2.53;;
11642;SDS011;5877;50.930;6.918;2022-08-25T11:31:13;5.93;;;2.92;;
11642;SDS011;5877;50.930;6.918;2022-08-25T11:33:42;3.33;;;2.80;;
11642;SDS011;5877;50.930;6.918;2022-08-25T11:36:52;5.05;;;3.00;;
11642;SDS011;5877;50.930;6.918;2022-08-25T11:39:07;4.68;;;3.20;;
11642;SDS011;5877;50.930;6.918;2022-08-25T11:42:07;3.70;;;3.08;;
11642;SDS011;5877;50.930;6.918;2022-08-25T11:44:47;3.50;;;2.83;;
11642;SDS011;5877;50.930;6.918;2022-08-25T11:53:14;3.45;;;3.10;;
11642;SDS011;5877;50.930;6.918;2022-08-25T12:01:03;4.32;;;3.03;;
11642;SDS011;5877;50.930;6.918;2022-08-25T12:07:13;3.33;;;3.03;;
11642;SDS011;5877;50.930;6.918;2022-08-25T12:21:56;3.45;;;2.80;;
11642;SDS011;5877;50.930;6.918;2022-08-25T12:35:36;3.72;;;3.40;;
11642;SDS011;5877;50.930;6.918;2022-08-25T12:38:13;4.13;;;3.10;;
11642;SDS011;5877;50.930;6.918;2022-08-25T12:57:25;4.32;;;3.17;;
11642;SDS011;5877;50.930;6.918;2022-08-25T13:00:04;7.55;;;3.40;;
11642;SDS011;5877;50.930;6.918;2022-08-25T13:08:00;5.32;;;2.95;;
11642;SDS011;5877;50.930;6.918;2022-08-25T13:16:05;4.88;;;3.10;;
11642;SDS011;5877;50.930;6.918;2022-08-25T13:18:37;8.68;;;3.00;;
11642;SDS011;5877;50.930;6.918;2022-08-25T13:21:16;5.80;;;3.05;;
11642;SDS011;5877;50.930;6.918;2022-08-25T13:24:00;8.65;;;3.58;;
11642;SDS011;5877;50.930;6.918;2022-08-25T13:26:38;3.53;;;2.70;;
11642;SDS011;5877;50.930;6.918;2022-08-25T13:29:15;6.22;;;2.72;;
11642;SDS011;5877;50.930;6.918;2022-08-25T13:34:43;3.33;;;2.70;;
11642;SDS011;5877;50.930;6.918;2022-08-25T13:37:18;3.75;;;2.70;;
11642;SDS011;5877;50.930;6.918;2022-08-25T13:40:13;4.03;;;2.70;;
11642;SDS011;5877;50.930;6.918;2022-08-25T13:42:56;5.18;;;2.70;;
11642;SDS011;5877;50.930;6.918;2022-08-25T13:45:29;3.55;;;2.42;;
11642;SDS011;5877;50.930;6.918;2022-08-25T13:48:10;2.92;;;2.60;;
11642;SDS011;5877;50.930;6.918;2022-08-25T13:50:46;3.45;;;2.80;;
11642;SDS011;5877;50.930;6.918;2022-08-25T13:53:23;2.65;;;2.40;;
11642;SDS011;5877;50.930;6.918;2022-08-25T13:55:56;3.53;;;2.60;;
11642;SDS011;5877;50.930;6.918;2022-08-25T13:58:26;5.05;;;2.28;;
11642;SDS011;5877;50.930;6.918;2022-08-25T14:01:14;3.55;;;2.30;;
11642;SDS011;5877;50.930;6.918;2022-08-25T14:04:23;2.97;;;2.63;;
11642;SDS011;5877;50.930;6.918;2022-08-25T14:09:50;3.65;;;2.92;;
11642;SDS011;5877;50.930;6.918;2022-08-25T14:12:31;5.93;;;2.63;;
11642;SDS011;5877;50.930;6.918;2022-08-25T14:17:57;5.25;;;2.50;;
11642;SDS011;5877;50.930;6.918;2022-08-25T14:20:44;2.83;;;2.63;;
11642;SDS011;5877;50.930;6.918;2022-08-25T14:23:14;3.25;;;2.40;;
11642;SDS011;5877;50.930;6.918;2022-08-25T14:25:45;2.50;;;2.30;;
11642;SDS011;5877;50.930;6.918;2022-08-25T14:28:13;3.10;;;2.80;;
11642;SDS011;5877;50.930;6.918;2022-08-25T14:30:45;4.35;;;2.40;;
11642;SDS011;5877;50.930;6.918;2022-08-25T14:33:18;6.57;;;2.30;;
11642;SDS011;5877;50.930;6.918;2022-08-25T14:35:51;2.38;;;2.17;;
11642;SDS011;5877;50.930;6.918;2022-08-25T14:38:20;4.32;;;2.80;;
11642;SDS011;5877;50.930;6.918;2022-08-25T14:40:48;3.22;;;2.60;;
11642;SDS011;5877;50.930;6.918;2022-08-25T14:43:16;3.25;;;2.80;;
11642;SDS011;5877;50.930;6.918;2022-08-25T14:45:49;3.95;;;2.67;;
11642;SDS011;5877;50.930;6.918;2022-08-25T14:48:31;3.90;;;2.75;;
11642;SDS011;5877;50.930;6.918;2022-08-25T14:51:03;2.88;;;2.58;;
11642;SDS011;5877;50.930;6.918;2022-08-25T14:53:33;3.60;;;3.03;;
11642;SDS011;5877;50.930;6.918;2022-08-25T14:56:02;3.97;;;2.83;;
11642;SDS011;5877;50.930;6.918;2022-08-25T14:58:34;2.60;;;2.40;;
11642;SDS011;5877;50.930;6.918;2022-08-25T15:01:20;3.03;;;2.50;;
11642;SDS011;5877;50.930;6.918;2022-08-25T15:04:16;3.15;;;2.45;;
11642;SDS011;5877;50.930;6.918;2022-08-25T15:06:48;3.95;;;2.88;;
11642;SDS011;5877;50.930;6.918;2022-08-25T15:09:17;4.72;;;2.38;;
11642;SDS011;5877;50.930;6.918;2022-08-25T15:11:45;3.20;;;2.70;;
11642;SDS011;5877;50.930;6.918;2022-08-25T15:14:23;2.42;;;2.20;;
11642;SDS011;5877;50.930;6.918;2022-08-25T15:16:59;3.75;;;2.20;;
11642;SDS011;5877;50.930;6.918;2022-08-25T15:19:27;4.35;;;3.00;;
11642;SDS011;5877;50.930;6.918;2022-08-25T15:21:54;2.15;;;1.95;;
11642;SDS011;5877;50.930;6.918;2022-08-25T15:24:24;2.75;;;2.22;;
11642;SDS011;5877;50.930;6.918;2022-08-25T15:26:54;3.53;;;2.25;;
11642;SDS011;5877;50.930;6.918;2022-08-25T15:29:27;4.22;;;2.17;;
11642;SDS011;5877;50.930;6.918;2022-08-25T15:31:56;2.22;;;2.03;;
11642;SDS011;5877;50.930;6.918;2022-08-25T15:34:25;3.33;;;2.45;;
11642;SDS011;5877;50.930;6.918;2022-08-25T15:36:58;2.72;;;2.30;;
11642;SDS011;5877;50.930;6.918;2022-08-25T15:39:26;3.35;;;2.75;;
11642;SDS011;5877;50.930;6.918;2022-08-25T15:41:53;3.65;;;3.35;;
11642;SDS011;5877;50.930;6.918;2022-08-25T15:44:22;3.85;;;2.63;;
11642;SDS011;5877;50.930;6.918;2022-08-25T15:46:56;3.90;;;2.10;;
11642;SDS011;5877;50.930;6.918;2022-08-25T15:49:25;2.72;;;2.13;;
11642;SDS011;5877;50.930;6.918;2022-08-25T15:51:58;3.88;;;2.45;;
11642;SDS011;5877;50.930;6.918;2022-08-25T15:54:26;4.03;;;2.38;;
11642;SDS011;5877;50.930;6.918;2022-08-25T15:56:54;2.75;;;2.00;;
11642;SDS011;5877;50.930;6.918;2022-08-25T15:59:25;3.03;;;2.30;;
11642;SDS011;5877;50.930;6.918;2022-08-25T16:01:53;2.97;;;2.20;;
11642;SDS011;5877;50.930;6.918;2022-08-25T16:04:22;3.15;;;2.30;;
11642;SDS011;5877;50.930;6.918;2022-08-25T16:06:49;2.22;;;1.92;;
11642;SDS011;5877;50.930;6.918;2022-08-25T16:09:18;2.10;;;1.85;;
11642;SDS011;5877;50.930;6.918;2022-08-25T16:11:48;2.78;;;1.83;;
11642;SDS011;5877;50.930;6.918;2022-08-25T16:14:24;3.03;;;2.10;;
11642;SDS011;5877;50.930;6.918;2022-08-25T16:16:56;4.93;;;2.00;;
11642;SDS011;5877;50.930;6.918;2022-08-25T16:19:26;4.22;;;2.35;;
11642;SDS011;5877;50.930;6.918;2022-08-25T16:21:54;3.13;;;2.28;;
11642;SDS011;5877;50.930;6.918;2022-08-25T16:24:23;5.93;;;2.25;;
11642;SDS011;5877;50.930;6.918;2022-08-25T16:26:50;3.55;;;2.28;;
11642;SDS011;5877;50.930;6.918;2022-08-25T16:29:20;5.00;;;2.30;;
11642;SDS011;5877;50.930;6.918;2022-08-25T16:31:48;2.45;;;2.25;;
11642;SDS011;5877;50.930;6.918;2022-08-25T16:34:19;3.25;;;2.30;;
11642;SDS011;5877;50.930;6.918;2022-08-25T16:36:45;4.82;;;2.65;;
11642;SDS011;5877;50.930;6.918;2022-08-25T16:39:18;3.13;;;2.20;;
11642;SDS011;5877;50.930;6.918;2022-08-25T16:41:46;6.88;;;2.20;;
11642;SDS011;5877;50.930;6.918;2022-08-25T16:44:17;2.80;;;2.30;;
11642;SDS011;5877;50.930;6.918;2022-08-25T16:46:48;4.28;;;2.40;;
11642;SDS011;5877;50.930;6.918;2022-08-25T16:49:20;2.03;;;1.88;;
11642;SDS011;5877;50.930;6.918;2022-08-25T16:51:50;2.30;;;2.10;;
11642;SDS011;5877;50.930;6.918;2022-08-25T16:54:25;4.55;;;2.20;;
11642;SDS011;5877;50.930;6.918;2022-08-25T16:57:11;3.50;;;2.22;;
11642;SDS011;5877;50.930;6.918;2022-08-25T16:59:38;3.47;;;2.38;;
11642;SDS011;5877;50.930;6.918;2022-08-25T17:02:04;3.05;;;2.20;;
11642;SDS011;5877;50.930;6.918;2022-08-25T17:04:33;3.63;;;2.00;;
11642;SDS011;5877;50.930;6.918;2022-08-25T17:07:00;3.75;;;2.50;;
11642;SDS011;5877;50.930;6.918;2022-08-25T17:09:27;3.30;;;2.20;;
11642;SDS011;5877;50.930;6.918;2022-08-25T17:11:55;3.03;;;2.20;;
11642;SDS011;5877;50.930;6.918;2022-08-25T17:14:22;3.60;;;2.40;;
11642;SDS011;5877;50.930;6.918;2022-08-25T17:16:51;3.50;;;2.07;;
11642;SDS011;5877;50.930;6.918;2022-08-25T17:19:21;2.80;;;2.30;;
11642;SDS011;5877;50.930;6.918;2022-08-25T17:21:50;3.40;;;2.20;;
11642;SDS011;5877;50.930;6.918;2022-08-25T17:24:19;2.93;;;2.30;;
11642;SDS011;5877;50.930;6.918;2022-08-25T17:26:46;3.23;;;2.20;;
11642;SDS011;5877;50.930;6.918;2022-08-25T17:29:16;4.13;;;2.30;;
11642;SDS011;5877;50.930;6.918;2022-08-25T17:31:44;2.60;;;2.40;;
11642;SDS011;5877;50.930;6.918;2022-08-25T17:34:14;4.10;;;2.60;;
11642;SDS011;5877;50.930;6.918;2022-08-25T17:36:49;2.37;;;2.17;;
11642;SDS011;5877;50.930;6.918;2022-08-25T17:39:16;4.27;;;2.67;;
11642;SDS011;5877;50.930;6.918;2022-08-25T17:41:48;4.57;;;2.63;;